createdAt,value
2023-03-05T00:01:24.477Z,99500.73
2023-03-05T00:04:13.140Z,99501.02
2023-03-05T00:07:05.981Z,99499.05
2023-03-05T00:09:56.755Z,99495.02
2023-03-05T00:12:49.123Z,99495.67
2023-03-05T00:15:43.286Z,99497.85
2023-03-05T00:18:35.706Z,99497.16
2023-03-05T00:21:38.791Z,99494.02
2023-03-05T00:24:31.240Z,99492.02
2023-03-05T00:27:23.626Z,99492.09
2023-03-05T00:30:17.652Z,99491.05
2023-03-05T00:33:07.623Z,99494.10
2023-03-05T00:36:02.521Z,99492.54
2023-03-05T00:38:47.800Z,99492.45
2023-03-05T00:41:38.611Z,99489.06
2023-03-05T00:44:24.308Z,99485.46
2023-03-05T00:47:18.496Z,99483.30
2023-03-05T00:50:12.901Z,99479.01
2023-03-05T00:53:05.243Z,99470.19
2023-03-05T00:55:58.225Z,99468.46
2023-03-05T00:58:50.549Z,99468.41
2023-03-05T01:01:42.964Z,99466.23
2023-03-05T01:04:35.114Z,99461.98
2023-03-05T01:07:27.629Z,99459.02
2023-03-05T01:10:18.422Z,99455.25
2023-03-05T01:13:10.925Z,99453.02
2023-03-05T01:15:55.690Z,99456.27
2023-03-05T01:18:48.096Z,99454.38
2023-03-05T01:21:40.455Z,99457.39
2023-03-05T01:24:33.009Z,99457.95
2023-03-05T01:27:25.395Z,99454.23
2023-03-05T01:30:15.570Z,99449.35
2023-03-05T01:33:07.960Z,99444.87
2023-03-05T01:36:01.257Z,99445.55
2023-03-05T01:38:53.906Z,99447.34
2023-03-05T01:41:46.232Z,99437.02
2023-03-05T01:44:33.194Z,99433.32
2023-03-05T01:47:18.081Z,99437.69
2023-03-05T01:49:50.407Z,99436.41
2023-03-05T01:52:36.829Z,99437.98
2023-03-05T01:55:32.926Z,99437.80
2023-03-05T01:58:18.042Z,99435.11
2023-03-05T02:01:04.836Z,99432.12
2023-03-05T02:03:48.516Z,99427.81
2023-03-05T02:06:32.066Z,99425.38
2023-03-05T02:09:24.696Z,99422.98
2023-03-05T02:12:16.205Z,99426.95
2023-03-05T02:15:09.205Z,99424.70
2023-03-05T02:18:01.432Z,99422.85
2023-03-05T02:20:51.867Z,99424.73
2023-03-05T02:23:39.398Z,99424.23
2023-03-05T02:26:31.725Z,99421.98
2023-03-05T02:29:23.450Z,99419.70
2023-03-05T02:32:16.536Z,99413.83
2023-03-05T02:35:10.161Z,99415.90
2023-03-05T02:37:52.464Z,99416.46
2023-03-05T02:43:44.821Z,99402.74
2023-03-05T02:46:35.783Z,99409.82
2023-03-05T02:49:27.984Z,99412.89
2023-03-05T02:52:12.777Z,99413.96
2023-03-05T02:55:05.728Z,99416.91
2023-03-05T02:57:58.127Z,99405.65
2023-03-05T03:00:42.175Z,99404.03
2023-03-05T03:03:33.500Z,99400.49
2023-03-05T03:06:25.953Z,99394.64
2023-03-05T03:09:18.236Z,99388.56
2023-03-05T03:12:12.033Z,99390.20
2023-03-05T03:14:55.844Z,99392.86
2023-03-05T03:17:48.610Z,99386.48
2023-03-05T03:20:41.434Z,99384.91
2023-03-05T03:23:34.828Z,99384.33
2023-03-05T03:26:27.435Z,99381.55
2023-03-05T03:29:19.981Z,99380.48
2023-03-05T03:32:12.638Z,99388.56
2023-03-05T03:34:57.720Z,99389.11
2023-03-05T03:37:50.271Z,99389.46
2023-03-05T03:40:43.355Z,99390.55
2023-03-05T03:43:34.831Z,99386.80
2023-03-05T03:46:27.334Z,99390.40
2023-03-05T03:49:19.265Z,99390.96
2023-03-05T03:52:02.339Z,99386.60
2023-03-05T03:54:53.805Z,99385.16
2023-03-05T03:57:46.103Z,99384.03
2023-03-05T04:00:40.177Z,99378.46
2023-03-05T04:03:32.532Z,99376.01
2023-03-05T04:06:11.301Z,99372.71
2023-03-05T04:09:03.649Z,99370.96
2023-03-05T04:11:54.073Z,99372.68
2023-03-05T04:14:44.981Z,99372.01
2023-03-05T04:17:29.970Z,99373.70
2023-03-05T04:20:20.957Z,99370.95
2023-03-05T04:23:06.398Z,99364.61
2023-03-05T04:25:58.891Z,99359.59
2023-03-05T04:28:51.104Z,99357.46
2023-03-05T04:31:43.587Z,99356.05
2023-03-05T04:34:36.185Z,99356.76
2023-03-05T04:37:27.399Z,99354.86
2023-03-05T04:40:12.441Z,99351.59
2023-03-05T04:43:05.462Z,99348.80
2023-03-05T04:45:58.235Z,99345.95
2023-03-05T04:48:50.515Z,99341.63
2023-03-05T04:51:35.394Z,99336.14
2023-03-05T04:54:28.335Z,99337.65
2023-03-05T04:57:23.086Z,99334.42
2023-03-05T05:00:18.724Z,99328.58
2023-03-05T05:03:11.165Z,99322.63
2023-03-05T05:06:04.179Z,99324.63
2023-03-05T05:08:56.596Z,99317.37
2023-03-05T05:11:48.850Z,99314.98
2023-03-05T05:14:43.689Z,99312.77
2023-03-05T05:17:36.808Z,99312.77
2023-03-05T05:20:29.457Z,99310.20
2023-03-05T05:23:21.992Z,99305.06
2023-03-05T05:26:09.838Z,99307.74
2023-03-05T05:29:02.456Z,99308.30
2023-03-05T05:31:37.601Z,99304.48
2023-03-05T05:34:30.115Z,99301.29
2023-03-05T05:37:21.030Z,99294.20
2023-03-05T05:40:06.738Z,99296.06
2023-03-05T05:42:59.252Z,99305.25
2023-03-05T05:46:03.689Z,99300.11
2023-03-05T05:48:56.112Z,99299.63
2023-03-05T05:51:48.208Z,99299.42
2023-03-05T05:54:39.205Z,99299.14
2023-03-05T05:57:14.218Z,99284.73
2023-03-05T06:00:10.059Z,99279.52
2023-03-05T06:02:45.516Z,99288.96
2023-03-05T06:05:31.066Z,99282.82
2023-03-05T06:08:03.254Z,99278.64
2023-03-05T06:10:54.270Z,99269.05
2023-03-05T06:13:40.743Z,99280.84
2023-03-05T06:16:33.649Z,99278.92
2023-03-05T06:19:17.029Z,99279.08
2023-03-05T06:21:59.296Z,99280.38
2023-03-05T06:24:51.603Z,99277.95
2023-03-05T06:27:27.321Z,99277.21
2023-03-05T06:30:20.149Z,99269.39
2023-03-05T06:32:55.469Z,99266.20
2023-03-05T06:35:47.729Z,99268.96
2023-03-05T06:38:40.757Z,99265.95
2023-03-05T06:41:34.142Z,99262.30
2023-03-05T06:44:26.839Z,99259.61
2023-03-05T06:47:19.977Z,99255.94
2023-03-05T06:50:14.738Z,99260.09
2023-03-05T06:53:07.465Z,99259.95
2023-03-05T06:55:50.015Z,99253.83
2023-03-05T06:58:40.848Z,99254.22
2023-03-05T07:01:33.419Z,99252.05
2023-03-05T07:04:25.910Z,99251.80
2023-03-05T07:07:17.182Z,99250.20
2023-03-05T07:10:00.159Z,99247.10
2023-03-05T07:12:43.563Z,99244.40
2023-03-05T07:15:39.003Z,99237.89
2023-03-05T07:18:32.215Z,99233.39
2023-03-05T07:21:26.715Z,99235.51
2023-03-05T07:24:19.922Z,99230.92
2023-03-05T07:27:12.298Z,99224.63
2023-03-05T07:30:05.442Z,99225.25
2023-03-05T07:32:58.092Z,99227.30
2023-03-05T07:35:48.926Z,99220.48
2023-03-05T07:38:32.486Z,99223.02
2023-03-05T07:41:21.179Z,99219.38
2023-03-05T07:44:13.645Z,99216.99
2023-03-05T07:47:06.169Z,99215.98
2023-03-05T07:49:57.056Z,99216.28
2023-03-05T07:52:49.780Z,99214.84
2023-03-05T07:55:36.941Z,99212.17
2023-03-05T07:58:20.695Z,99210.48
2023-03-05T08:01:16.354Z,99207.39
2023-03-05T08:04:10.833Z,99206.86
2023-03-05T08:07:03.814Z,99204.95
2023-03-05T08:09:56.221Z,99207.46
2023-03-05T08:12:42.116Z,99209.81
2023-03-05T08:15:34.510Z,99209.30
2023-03-05T08:18:27.195Z,99210.77
2023-03-05T08:21:22.068Z,99209.61
2023-03-05T08:24:15.558Z,99203.83
2023-03-05T08:27:07.970Z,99206.93
2023-03-05T08:29:58.881Z,99205.40
2023-03-05T08:32:52.596Z,99205.11
2023-03-05T08:35:24.917Z,99203.75
2023-03-05T08:38:15.961Z,99199.05
2023-03-05T08:41:09.077Z,99199.04
2023-03-05T08:44:01.376Z,99197.77
2023-03-05T08:46:58.699Z,99196.21
2023-03-05T08:49:30.890Z,99189.95
2023-03-05T08:52:23.408Z,99189.27
2023-03-05T08:55:01.289Z,99186.02
2023-03-05T08:57:53.720Z,99179.90
2023-03-05T09:00:46.013Z,99178.88
2023-03-05T09:03:32.493Z,99177.59
2023-03-05T09:06:15.028Z,99174.32
2023-03-05T09:08:50.370Z,99172.59
2023-03-05T09:11:27.223Z,99175.40
2023-03-05T09:14:19.295Z,99174.51
2023-03-05T09:17:11.720Z,99173.44
2023-03-05T09:19:57.625Z,99173.39
2023-03-05T09:22:48.644Z,99175.11
2023-03-05T09:25:34.679Z,99176.25
2023-03-05T09:28:19.900Z,99182.47
2023-03-05T09:30:57.400Z,99180.45
2023-03-05T09:33:50.604Z,99174.34
2023-03-05T09:36:42.900Z,99179.10
2023-03-05T09:39:35.400Z,99181.70
2023-03-05T09:42:40.820Z,99184.30
2023-03-05T09:45:38.861Z,99177.46
2023-03-05T09:48:47.811Z,99173.23
2023-03-05T09:51:43.109Z,99175.14
2023-03-05T09:54:21.359Z,99174.84
2023-03-05T09:57:13.884Z,99181.11
2023-03-05T09:59:59.267Z,99180.48
2023-03-05T10:02:55.915Z,99185.79
2023-03-05T10:05:54.869Z,99187.23
2023-03-05T10:08:55.941Z,99185.34
2023-03-05T10:11:52.172Z,99184.46
2023-03-05T10:14:32.669Z,99180.40
2023-03-05T10:17:51.933Z,99179.44
2023-03-05T10:20:50.431Z,99173.47
2023-03-05T10:23:56.893Z,99174.13
2023-03-05T10:26:53.870Z,99175.55
2023-03-05T10:30:03.881Z,99175.05
2023-03-05T10:33:06.618Z,99175.23
2023-03-05T10:36:11.239Z,99173.44
2023-03-05T10:39:26.120Z,99178.98
2023-03-05T10:42:17.012Z,99173.05
2023-03-05T10:45:09.683Z,99171.55
2023-03-05T10:47:58.540Z,99171.28
2023-03-05T10:50:54.976Z,99170.52
2023-03-05T10:53:55.771Z,99172.59
2023-03-05T10:56:48.876Z,99167.77
2023-03-05T10:59:24.167Z,99166.58
2023-03-05T11:02:16.534Z,99158.11
2023-03-05T11:05:05.132Z,99157.29
2023-03-05T11:07:49.031Z,99153.05
2023-03-05T11:10:32.268Z,99144.95
2023-03-05T11:13:26.256Z,99131.58
2023-03-05T11:16:18.792Z,99126.96
2023-03-05T11:19:26.916Z,99128.83
2023-03-05T11:22:19.098Z,99120.58
2023-03-05T11:25:21.540Z,99115.40
2023-03-05T11:27:59.984Z,99108.35
2023-03-05T11:30:41.914Z,99100.25
2023-03-05T11:33:35.223Z,99101.15
2023-03-05T11:36:26.195Z,99092.77
2023-03-05T11:39:19.469Z,99090.11
2023-03-05T11:41:57.735Z,99083.38
2023-03-05T11:44:44.860Z,99084.85
2023-03-05T11:47:45.117Z,99086.67
2023-03-05T11:50:39.281Z,99085.74
2023-03-05T11:53:20.292Z,99093.51
2023-03-05T11:56:20.128Z,99095.79
2023-03-05T11:59:19.191Z,99095.27
2023-03-05T12:01:56.582Z,99096.02
2023-03-05T12:04:50.348Z,99089.34
2023-03-05T12:07:41.800Z,99086.02
2023-03-05T12:10:34.230Z,99081.67
2023-03-05T12:13:24.837Z,99084.24
2023-03-05T12:16:29.270Z,99080.17
2023-03-05T12:19:40.522Z,99076.71
2023-03-05T12:22:21.603Z,99076.25
2023-03-05T12:25:33.162Z,99070.04
2023-03-05T12:28:55.731Z,99070.11
2023-03-05T12:31:49.062Z,99062.33
2023-03-05T12:34:46.985Z,99059.84
2023-03-05T12:38:24.369Z,99052.41
2023-03-05T12:41:37.639Z,99050.75
2023-03-05T12:44:24.811Z,99048.63
2023-03-05T12:47:23.697Z,99041.27
2023-03-05T12:50:46.815Z,99039.55
2023-03-05T12:53:32.216Z,99034.35
2023-03-05T12:56:20.852Z,99027.29
2023-03-05T12:59:14.661Z,99021.11
2023-03-05T13:02:11.205Z,99014.42
2023-03-05T13:05:06.943Z,99007.55
2023-03-05T13:08:16.237Z,99008.61
2023-03-05T13:11:19.907Z,98997.31
2023-03-05T13:14:32.021Z,99001.27
2023-03-05T13:17:44.402Z,98995.46
2023-03-05T13:20:39.601Z,98995.40
2023-03-05T13:23:25.246Z,98992.81
2023-03-05T13:26:19.831Z,98990.01
2023-03-05T13:29:16.011Z,98992.38
2023-03-05T13:32:26.656Z,98987.33
2023-03-05T13:35:16.456Z,98985.35
2023-03-05T13:38:23.634Z,98988.78
2023-03-05T13:41:26.976Z,98983.86
2023-03-05T13:44:22.976Z,98984.87
2023-03-05T13:47:21.676Z,98984.24
2023-03-05T13:50:08.242Z,98982.39
2023-03-05T13:53:18.180Z,98984.54
2023-03-05T13:56:06.994Z,98975.45
2023-03-05T13:58:58.535Z,98979.99
2023-03-05T14:01:51.352Z,98976.95
2023-03-05T14:04:47.096Z,98974.20
2023-03-05T14:07:37.854Z,98975.08
2023-03-05T14:10:37.244Z,98972.45
2023-03-05T14:13:32.209Z,98974.17
2023-03-05T14:16:32.686Z,98973.80
2023-03-05T14:19:40.529Z,98972.89
2023-03-05T14:22:35.642Z,98965.29
2023-03-05T14:25:40.154Z,98966.14
2023-03-05T14:28:33.958Z,98966.98
2023-03-05T14:31:19.419Z,98965.60
2023-03-05T14:34:23.737Z,98969.37
2023-03-05T14:37:24.224Z,98972.31
2023-03-05T14:40:28.103Z,98966.23
2023-03-05T14:45:16.740Z,98966.30
2023-03-05T14:48:11.739Z,98967.34
2023-03-05T14:50:58.389Z,98969.20
2023-03-05T14:53:52.147Z,98971.14
2023-03-05T14:56:44.633Z,98966.30
2023-03-05T14:59:21.116Z,98961.99
2023-03-05T15:02:18.207Z,98959.33
2023-03-05T15:05:12.355Z,98961.63
2023-03-05T15:07:57.755Z,98957.89
2023-03-05T15:10:51.047Z,98965.56
2023-03-05T15:13:43.475Z,98967.23
2023-03-05T15:16:21.504Z,98965.16
2023-03-05T15:18:59.320Z,98966.35
2023-03-05T15:21:50.346Z,98967.25
2023-03-05T15:24:32.738Z,98973.05
2023-03-05T15:27:25.225Z,99003.70
2023-03-05T15:30:18.049Z,99011.81
2023-03-05T15:33:13.319Z,99016.98
2023-03-05T15:35:58.541Z,99020.27
2023-03-05T15:38:46.760Z,99018.38
2023-03-05T15:41:24.858Z,99021.52
2023-03-05T15:44:01.494Z,99014.70
2023-03-05T15:46:46.517Z,99013.89
2023-03-05T15:49:28.938Z,99014.73
2023-03-05T15:52:19.894Z,99010.35
2023-03-05T15:55:06.756Z,99012.82
2023-03-05T15:57:59.269Z,99010.45
2023-03-05T16:00:51.910Z,99009.06
2023-03-05T16:03:44.236Z,99009.83
2023-03-05T16:06:35.336Z,99007.92
2023-03-05T16:09:20.249Z,99007.80
2023-03-05T16:12:15.339Z,99013.73
2023-03-05T16:15:00.510Z,99008.41
2023-03-05T16:17:46.426Z,99005.89
2023-03-05T16:20:24.958Z,99008.85
2023-03-05T16:23:00.007Z,99004.70
2023-03-05T16:25:40.956Z,99002.27
2023-03-05T16:28:33.420Z,99000.02
2023-03-05T16:31:31.009Z,99003.67
2023-03-05T16:34:23.649Z,99000.02
2023-03-05T16:37:08.578Z,98997.82
2023-03-05T16:40:01.658Z,99001.10
2023-03-05T16:42:54.047Z,99001.11
2023-03-05T16:45:49.173Z,99003.27
2023-03-05T16:48:36.734Z,99003.16
2023-03-05T16:51:29.786Z,99001.52
2023-03-05T16:54:23.153Z,98997.09
2023-03-05T16:57:16.101Z,98994.98
2023-03-05T17:00:11.900Z,98997.23
2023-03-05T17:03:04.717Z,98999.08
2023-03-05T17:05:57.945Z,99000.79
2023-03-05T17:08:42.172Z,99001.27
2023-03-05T17:11:34.599Z,99002.02
2023-03-05T17:14:12.554Z,99000.38
2023-03-05T17:17:07.298Z,99006.44
2023-03-05T17:20:00.809Z,99002.70
2023-03-05T17:22:51.860Z,99008.48
2023-03-05T17:25:44.943Z,99010.83
2023-03-05T17:28:22.582Z,99006.77
2023-03-05T17:31:14.446Z,99006.91
2023-03-05T17:34:07.376Z,99002.23
2023-03-05T17:36:52.250Z,98998.03
2023-03-05T17:39:24.688Z,98998.20
2023-03-05T17:42:09.534Z,98998.71
2023-03-05T17:45:07.061Z,98995.58
2023-03-05T17:48:02.573Z,98996.04
2023-03-05T17:50:55.413Z,98991.77
2023-03-05T17:53:28.069Z,98986.27
2023-03-05T17:56:20.529Z,98983.28
2023-03-05T17:59:06.544Z,98984.70
2023-03-05T18:01:52.034Z,98977.81
2023-03-05T18:04:47.431Z,98977.30
2023-03-05T18:07:34.358Z,98977.98
2023-03-05T18:10:17.741Z,98977.57
2023-03-05T18:13:30.658Z,98975.12
2023-03-05T18:16:25.324Z,98975.66
2023-03-05T18:19:18.724Z,98973.94
2023-03-05T18:22:14.634Z,98974.10
2023-03-05T18:25:10.442Z,98973.81
2023-03-05T18:28:05.096Z,98976.20
2023-03-05T18:30:49.408Z,98971.88
2023-03-05T18:33:42.299Z,98969.08
2023-03-05T18:36:27.693Z,98972.41
2023-03-05T18:39:20.769Z,98972.79
2023-03-05T18:41:57.947Z,98974.49
2023-03-05T18:44:43.113Z,98974.91
2023-03-05T18:47:34.782Z,98969.13
2023-03-05T18:50:21.615Z,98969.90
2023-03-05T18:53:09.249Z,98970.88
2023-03-05T18:55:45.667Z,98969.16
2023-03-05T18:58:39.605Z,98973.59
2023-03-05T19:01:32.109Z,98976.82
2023-03-05T19:04:16.231Z,98972.36
2023-03-05T19:07:09.124Z,98966.89
2023-03-05T19:09:58.897Z,98970.15
2023-03-05T19:13:44.065Z,98966.98
2023-03-05T19:16:43.453Z,98968.50
2023-03-05T19:19:26.126Z,98969.58
2023-03-05T19:22:12.788Z,98971.90
2023-03-05T19:25:06.544Z,98972.21
2023-03-05T19:27:48.893Z,98971.39
2023-03-05T19:30:29.906Z,98977.99
2023-03-05T19:33:14.135Z,98981.27
2023-03-05T19:36:00.290Z,98982.33
2023-03-05T19:38:53.648Z,98978.27
2023-03-05T19:41:27.992Z,98983.05
2023-03-05T19:44:20.485Z,98977.69
2023-03-05T19:47:13.121Z,98981.20
2023-03-05T19:50:06.154Z,98976.55
2023-03-05T19:52:48.543Z,98971.16
2023-03-05T19:55:43.218Z,98971.58
2023-03-05T19:58:19.026Z,98972.27
2023-03-05T20:01:14.226Z,98973.48
2023-03-05T20:03:58.183Z,98965.55
2023-03-05T20:06:44.798Z,98969.42
2023-03-05T20:09:55.506Z,98961.75
2023-03-05T20:12:50.557Z,98964.21
2023-03-05T20:15:55.611Z,98959.34
2023-03-05T20:18:57.023Z,98964.38
2023-03-05T20:21:49.162Z,98963.40
2023-03-05T20:24:34.609Z,98961.56
2023-03-05T20:27:30.362Z,98957.78
2023-03-05T20:30:26.359Z,98955.45
2023-03-05T20:33:02.227Z,98954.52
2023-03-05T20:35:56.498Z,98950.87
2023-03-05T20:38:42.768Z,98950.23
2023-03-05T20:41:39.307Z,98950.54
2023-03-05T20:44:30.328Z,98952.10
2023-03-05T20:47:46.484Z,98945.63
2023-03-05T20:50:50.464Z,98938.27
2023-03-05T20:53:34.773Z,98934.12
2023-03-05T20:56:32.422Z,98923.44
2023-03-05T20:59:23.413Z,98917.75
2023-03-05T21:02:18.431Z,98920.45
2023-03-05T21:05:12.727Z,98919.20
2023-03-05T21:08:05.814Z,98922.14
2023-03-05T21:10:56.055Z,98926.03
2023-03-05T21:13:48.634Z,98920.31
2023-03-05T21:16:29.387Z,98921.14
2023-03-05T21:19:13.058Z,98921.22
2023-03-05T21:22:05.739Z,98922.08
2023-03-05T21:25:21.143Z,98921.04
2023-03-05T21:27:59.504Z,98919.94
2023-03-05T21:30:54.451Z,98923.48
2023-03-05T21:33:47.231Z,98924.79
2023-03-05T21:36:32.302Z,98919.02
2023-03-05T21:39:24.523Z,98915.25
2023-03-05T21:42:10.695Z,98919.15
2023-03-05T21:45:03.069Z,98916.34
2023-03-05T21:47:52.062Z,98918.36
2023-03-05T21:50:46.393Z,98919.34
2023-03-05T21:53:38.881Z,98920.93
2023-03-05T21:56:32.029Z,98930.45
2023-03-05T21:59:17.877Z,98929.77
2023-03-05T22:02:14.740Z,98930.13
2023-03-05T22:04:59.934Z,98928.21
2023-03-05T22:07:52.382Z,98929.79
2023-03-05T22:10:43.136Z,98926.50
2023-03-05T22:13:25.423Z,98924.33
2023-03-05T22:16:24.933Z,98924.52
2023-03-05T22:19:17.305Z,98921.38
2023-03-05T22:22:09.613Z,98917.35
2023-03-05T22:25:02.408Z,98914.66
2023-03-05T22:27:54.869Z,98908.54
2023-03-05T22:30:46.050Z,98904.95
2023-03-05T22:33:38.646Z,98901.35
2023-03-05T22:36:29.419Z,98897.57
2023-03-05T22:39:21.932Z,98890.33
2023-03-05T22:42:15.809Z,98891.45
2023-03-05T22:45:09.991Z,98892.14
2023-03-05T22:48:02.465Z,98892.59
2023-03-05T22:50:44.005Z,98888.34
2023-03-05T22:53:36.469Z,98886.55
2023-03-05T22:56:24.512Z,98880.74
2023-03-05T22:59:17.001Z,98881.97
2023-03-05T23:02:04.241Z,98887.36
2023-03-05T23:04:50.259Z,98887.60
2023-03-05T23:07:34.805Z,98881.93
2023-03-05T23:10:29.511Z,98879.10
2023-03-05T23:13:12.980Z,98879.14
2023-03-05T23:16:05.660Z,98878.64
2023-03-05T23:18:57.969Z,98880.90
2023-03-05T23:21:49.252Z,98879.28
2023-03-05T23:24:26.308Z,98877.88
2023-03-05T23:27:18.248Z,98878.47
2023-03-05T23:30:23.507Z,98879.29
2023-03-05T23:33:17.927Z,98876.71
2023-03-05T23:36:10.821Z,98876.67
2023-03-05T23:38:58.041Z,98881.13
2023-03-05T23:41:35.945Z,98874.27
2023-03-05T23:44:21.770Z,98881.48
2023-03-05T23:47:14.221Z,98877.42
2023-03-05T23:50:05.268Z,98879.04
2023-03-05T23:53:03.348Z,98877.79
2023-03-05T23:55:49.126Z,98879.80
2023-03-05T23:58:24.700Z,98878.88
